sensor_id;sensor_type;location;lat;lon;timestamp;temperature;humidity
62912;DHT22;49111;51.028;4.218;2022-09-17T00:02:21;12.40;99.90
62912;DHT22;49111;51.028;4.218;2022-09-17T00:04:48;12.40;99.90
62912;DHT22;49111;51.028;4.218;2022-09-17T00:07:14;12.40;99.90
62912;DHT22;49111;51.028;4.218;2022-09-17T00:09:40;12.40;99.90
62912;DHT22;49111;51.028;4.218;2022-09-17T00:12:06;12.40;99.90
62912;DHT22;49111;51.028;4.218;2022-09-17T00:14:32;12.40;99.90
62912;DHT22;49111;51.028;4.218;2022-09-17T00:16:58;12.30;99.90
62912;DHT22;49111;51.028;4.218;2022-09-17T00:19:24;12.20;99.90
62912;DHT22;49111;51.028;4.218;2022-09-17T00:21:51;12.20;99.90
62912;DHT22;49111;51.028;4.218;2022-09-17T00:24:17;12.30;99.90
62912;DHT22;49111;51.028;4.218;2022-09-17T00:26:44;12.30;99.90
62912;DHT22;49111;51.028;4.218;2022-09-17T00:29:10;12.30;99.90
62912;DHT22;49111;51.028;4.218;2022-09-17T00:31:36;12.20;99.90
62912;DHT22;49111;51.028;4.218;2022-09-17T00:34:03;12.00;99.90
62912;DHT22;49111;51.028;4.218;2022-09-17T00:36:30;11.90;99.90
62912;DHT22;49111;51.028;4.218;2022-09-17T00:38:58;12.00;99.90
62912;DHT22;49111;51.028;4.218;2022-09-17T00:41:27;11.90;99.90
62912;DHT22;49111;51.028;4.218;2022-09-17T00:43:59;11.90;99.90
62912;DHT22;49111;51.028;4.218;2022-09-17T00:48:54;11.80;99.90
62912;DHT22;49111;51.028;4.218;2022-09-17T00:51:30;11.80;99.90
62912;DHT22;49111;51.028;4.218;2022-09-17T00:53:58;11.80;99.90
62912;DHT22;49111;51.028;4.218;2022-09-17T00:56:28;11.80;99.90
62912;DHT22;49111;51.028;4.218;2022-09-17T00:58:56;11.80;99.90
62912;DHT22;49111;51.028;4.218;2022-09-17T01:01:22;11.80;99.90
62912;DHT22;49111;51.028;4.218;2022-09-17T01:03:48;11.80;99.90
62912;DHT22;49111;51.028;4.218;2022-09-17T01:17:04;11.80;99.90
62912;DHT22;49111;51.028;4.218;2022-09-17T01:20:10;11.90;99.90
62912;DHT22;49111;51.028;4.218;2022-09-17T01:23:15;11.80;99.90
62912;DHT22;49111;51.028;4.218;2022-09-17T01:29:54;11.90;99.90
62912;DHT22;49111;51.028;4.218;2022-09-17T01:43:09;11.90;99.90
62912;DHT22;49111;51.028;4.218;2022-09-17T01:48:41;11.70;99.90
62912;DHT22;49111;51.028;4.218;2022-09-17T01:51:18;11.80;99.90
62912;DHT22;49111;51.028;4.218;2022-09-17T01:54:04;11.80;99.90
62912;DHT22;49111;51.028;4.218;2022-09-17T01:56:40;11.80;99.90
62912;DHT22;49111;51.028;4.218;2022-09-17T02:02:15;11.90;99.90
62912;DHT22;49111;51.028;4.218;2022-09-17T02:04:57;11.90;99.90
62912;DHT22;49111;51.028;4.218;2022-09-17T02:07:26;11.90;99.90
62912;DHT22;49111;51.028;4.218;2022-09-17T02:10:09;11.90;99.90
62912;DHT22;49111;51.028;4.218;2022-09-17T02:12:41;11.80;99.90
62912;DHT22;49111;51.028;4.218;2022-09-17T02:15:19;11.80;99.90
62912;DHT22;49111;51.028;4.218;2022-09-17T02:18:06;11.80;99.90
62912;DHT22;49111;51.028;4.218;2022-09-17T02:20:40;11.90;99.90
62912;DHT22;49111;51.028;4.218;2022-09-17T02:23:15;11.90;99.90
62912;DHT22;49111;51.028;4.218;2022-09-17T02:26:09;12.00;99.90
62912;DHT22;49111;51.028;4.218;2022-09-17T02:28:40;12.10;99.90
62912;DHT22;49111;51.028;4.218;2022-09-17T02:31:07;12.20;99.90
62912;DHT22;49111;51.028;4.218;2022-09-17T02:33:34;12.20;99.90
62912;DHT22;49111;51.028;4.218;2022-09-17T02:36:01;12.30;99.90
62912;DHT22;49111;51.028;4.218;2022-09-17T02:38:29;12.30;99.90
62912;DHT22;49111;51.028;4.218;2022-09-17T02:41:19;12.30;99.90
62912;DHT22;49111;51.028;4.218;2022-09-17T02:49:23;12.30;99.90
62912;DHT22;49111;51.028;4.218;2022-09-17T02:52:01;12.20;99.90
62912;DHT22;49111;51.028;4.218;2022-09-17T02:54:55;12.20;99.90
62912;DHT22;49111;51.028;4.218;2022-09-17T02:57:44;12.10;99.90
62912;DHT22;49111;51.028;4.218;2022-09-17T03:00:12;12.10;99.90
62912;DHT22;49111;51.028;4.218;2022-09-17T03:05:09;12.00;99.90
62912;DHT22;49111;51.028;4.218;2022-09-17T03:07:36;12.00;99.90
62912;DHT22;49111;51.028;4.218;2022-09-17T03:10:03;11.90;99.90
62912;DHT22;49111;51.028;4.218;2022-09-17T03:12:28;11.90;99.90
62912;DHT22;49111;51.028;4.218;2022-09-17T03:14:54;11.90;99.90
62912;DHT22;49111;51.028;4.218;2022-09-17T03:17:20;11.90;99.90
62912;DHT22;49111;51.028;4.218;2022-09-17T03:19:46;11.90;99.90
62912;DHT22;49111;51.028;4.218;2022-09-17T03:22:11;11.80;99.90
62912;DHT22;49111;51.028;4.218;2022-09-17T03:24:37;11.80;99.90
62912;DHT22;49111;51.028;4.218;2022-09-17T03:27:03;11.70;99.90
62912;DHT22;49111;51.028;4.218;2022-09-17T03:29:29;11.70;99.90
62912;DHT22;49111;51.028;4.218;2022-09-17T03:31:55;11.70;99.90
62912;DHT22;49111;51.028;4.218;2022-09-17T03:34:20;11.70;99.90
62912;DHT22;49111;51.028;4.218;2022-09-17T03:36:46;11.70;99.90
62912;DHT22;49111;51.028;4.218;2022-09-17T03:39:12;11.70;99.90
62912;DHT22;49111;51.028;4.218;2022-09-17T03:41:38;11.70;99.90
62912;DHT22;49111;51.028;4.218;2022-09-17T03:44:04;11.60;99.90
62912;DHT22;49111;51.028;4.218;2022-09-17T03:46:30;11.60;99.90
62912;DHT22;49111;51.028;4.218;2022-09-17T03:48:55;11.50;99.90
62912;DHT22;49111;51.028;4.218;2022-09-17T03:51:21;11.50;99.90
62912;DHT22;49111;51.028;4.218;2022-09-17T03:53:47;11.50;99.90
62912;DHT22;49111;51.028;4.218;2022-09-17T03:56:13;11.50;99.90
62912;DHT22;49111;51.028;4.218;2022-09-17T03:58:39;11.40;99.90
62912;DHT22;49111;51.028;4.218;2022-09-17T04:01:05;11.40;99.90
62912;DHT22;49111;51.028;4.218;2022-09-17T04:03:30;11.30;99.90
62912;DHT22;49111;51.028;4.218;2022-09-17T04:05:56;11.30;99.90
62912;DHT22;49111;51.028;4.218;2022-09-17T04:08:22;11.30;99.90
62912;DHT22;49111;51.028;4.218;2022-09-17T04:10:48;11.20;99.90
62912;DHT22;49111;51.028;4.218;2022-09-17T04:13:16;11.20;99.90
62912;DHT22;49111;51.028;4.218;2022-09-17T04:15:43;11.20;99.90
62912;DHT22;49111;51.028;4.218;2022-09-17T04:18:09;11.20;99.90
62912;DHT22;49111;51.028;4.218;2022-09-17T04:20:35;11.20;99.90
62912;DHT22;49111;51.028;4.218;2022-09-17T04:23:01;11.20;99.90
62912;DHT22;49111;51.028;4.218;2022-09-17T04:25:27;11.30;99.90
62912;DHT22;49111;51.028;4.218;2022-09-17T04:27:53;11.30;99.90
62912;DHT22;49111;51.028;4.218;2022-09-17T04:30:19;11.20;99.90
62912;DHT22;49111;51.028;4.218;2022-09-17T04:32:45;11.20;99.90
62912;DHT22;49111;51.028;4.218;2022-09-17T04:35:12;11.20;99.90
62912;DHT22;49111;51.028;4.218;2022-09-17T04:37:38;11.20;99.90
62912;DHT22;49111;51.028;4.218;2022-09-17T04:40:04;11.20;99.90
62912;DHT22;49111;51.028;4.218;2022-09-17T04:42:34;11.30;99.90
62912;DHT22;49111;51.028;4.218;2022-09-17T04:45:00;11.20;99.90
62912;DHT22;49111;51.028;4.218;2022-09-17T04:47:26;11.20;99.90
62912;DHT22;49111;51.028;4.218;2022-09-17T04:49:51;11.20;99.90
62912;DHT22;49111;51.028;4.218;2022-09-17T04:52:17;11.10;99.90
62912;DHT22;49111;51.028;4.218;2022-09-17T04:54:43;11.20;99.90
62912;DHT22;49111;51.028;4.218;2022-09-17T04:57:08;11.10;99.90
62912;DHT22;49111;51.028;4.218;2022-09-17T04:59:34;11.10;99.90
62912;DHT22;49111;51.028;4.218;2022-09-17T05:02:00;11.10;99.90
62912;DHT22;49111;51.028;4.218;2022-09-17T05:04:26;11.20;99.90
62912;DHT22;49111;51.028;4.218;2022-09-17T05:06:51;11.20;99.90
62912;DHT22;49111;51.028;4.218;2022-09-17T05:09:17;11.20;99.90
62912;DHT22;49111;51.028;4.218;2022-09-17T05:11:43;11.20;99.90
62912;DHT22;49111;51.028;4.218;2022-09-17T05:14:09;11.20;99.90
62912;DHT22;49111;51.028;4.218;2022-09-17T05:16:34;11.20;99.90
62912;DHT22;49111;51.028;4.218;2022-09-17T05:19:00;11.30;99.90
62912;DHT22;49111;51.028;4.218;2022-09-17T05:21:26;11.40;99.90
62912;DHT22;49111;51.028;4.218;2022-09-17T05:23:51;11.40;99.90
62912;DHT22;49111;51.028;4.218;2022-09-17T05:26:17;11.40;99.90
62912;DHT22;49111;51.028;4.218;2022-09-17T05:28:43;11.40;99.90
62912;DHT22;49111;51.028;4.218;2022-09-17T05:31:09;11.50;99.90
62912;DHT22;49111;51.028;4.218;2022-09-17T05:33:35;11.50;99.90
62912;DHT22;49111;51.028;4.218;2022-09-17T05:36:01;11.60;99.90
62912;DHT22;49111;51.028;4.218;2022-09-17T05:38:26;11.60;99.90
62912;DHT22;49111;51.028;4.218;2022-09-17T05:40:52;11.70;99.90
62912;DHT22;49111;51.028;4.218;2022-09-17T05:43:18;11.80;99.90
62912;DHT22;49111;51.028;4.218;2022-09-17T05:45:44;11.80;99.90
62912;DHT22;49111;51.028;4.218;2022-09-17T05:48:12;11.80;99.90
62912;DHT22;49111;51.028;4.218;2022-09-17T05:50:38;11.90;99.90
62912;DHT22;49111;51.028;4.218;2022-09-17T05:53:10;11.90;99.90
62912;DHT22;49111;51.028;4.218;2022-09-17T05:55:37;12.00;99.90
62912;DHT22;49111;51.028;4.218;2022-09-17T05:58:10;12.00;99.90
62912;DHT22;49111;51.028;4.218;2022-09-17T06:00:37;12.00;99.90
62912;DHT22;49111;51.028;4.218;2022-09-17T06:03:03;11.90;99.90
62912;DHT22;49111;51.028;4.218;2022-09-17T06:05:28;12.00;99.90
62912;DHT22;49111;51.028;4.218;2022-09-17T06:07:54;12.10;99.90
62912;DHT22;49111;51.028;4.218;2022-09-17T06:10:20;12.10;99.90
62912;DHT22;49111;51.028;4.218;2022-09-17T06:12:46;12.10;99.90
62912;DHT22;49111;51.028;4.218;2022-09-17T06:15:11;12.10;99.90
62912;DHT22;49111;51.028;4.218;2022-09-17T06:17:39;12.00;99.90
62912;DHT22;49111;51.028;4.218;2022-09-17T06:20:06;12.00;99.90
62912;DHT22;49111;51.028;4.218;2022-09-17T06:22:32;12.00;99.90
62912;DHT22;49111;51.028;4.218;2022-09-17T06:24:58;11.90;99.90
62912;DHT22;49111;51.028;4.218;2022-09-17T06:27:31;12.00;99.90
62912;DHT22;49111;51.028;4.218;2022-09-17T06:29:58;12.10;99.90
62912;DHT22;49111;51.028;4.218;2022-09-17T06:32:23;12.10;99.90
62912;DHT22;49111;51.028;4.218;2022-09-17T06:34:49;12.10;99.90
62912;DHT22;49111;51.028;4.218;2022-09-17T06:37:15;12.10;99.90
62912;DHT22;49111;51.028;4.218;2022-09-17T06:39:41;12.20;99.90
62912;DHT22;49111;51.028;4.218;2022-09-17T06:42:07;12.20;99.90
62912;DHT22;49111;51.028;4.218;2022-09-17T06:44:33;12.20;99.90
62912;DHT22;49111;51.028;4.218;2022-09-17T06:46:59;12.20;99.90
62912;DHT22;49111;51.028;4.218;2022-09-17T06:49:24;12.20;99.90
62912;DHT22;49111;51.028;4.218;2022-09-17T06:51:50;12.40;99.90
62912;DHT22;49111;51.028;4.218;2022-09-17T06:54:16;12.30;99.90
62912;DHT22;49111;51.028;4.218;2022-09-17T06:56:41;12.30;99.90
62912;DHT22;49111;51.028;4.218;2022-09-17T06:59:07;12.30;99.90
62912;DHT22;49111;51.028;4.218;2022-09-17T07:01:33;12.40;99.90
62912;DHT22;49111;51.028;4.218;2022-09-17T07:03:59;12.40;99.90
62912;DHT22;49111;51.028;4.218;2022-09-17T07:06:24;12.30;99.90
62912;DHT22;49111;51.028;4.218;2022-09-17T07:08:50;12.30;99.90
62912;DHT22;49111;51.028;4.218;2022-09-17T07:11:16;12.30;99.90
62912;DHT22;49111;51.028;4.218;2022-09-17T07:13:42;12.30;99.90
62912;DHT22;49111;51.028;4.218;2022-09-17T07:16:08;12.40;99.90
62912;DHT22;49111;51.028;4.218;2022-09-17T07:18:34;12.50;99.90
62912;DHT22;49111;51.028;4.218;2022-09-17T07:21:04;12.50;99.90
62912;DHT22;49111;51.028;4.218;2022-09-17T07:23:32;12.50;99.90
62912;DHT22;49111;51.028;4.218;2022-09-17T07:26:03;12.50;99.90
62912;DHT22;49111;51.028;4.218;2022-09-17T07:28:29;12.60;99.90
62912;DHT22;49111;51.028;4.218;2022-09-17T07:30:55;12.50;99.90
62912;DHT22;49111;51.028;4.218;2022-09-17T07:33:23;12.50;99.90
62912;DHT22;49111;51.028;4.218;2022-09-17T07:36:03;12.50;99.90
62912;DHT22;49111;51.028;4.218;2022-09-17T07:38:29;12.60;99.90
62912;DHT22;49111;51.028;4.218;2022-09-17T07:40:58;12.80;99.90
62912;DHT22;49111;51.028;4.218;2022-09-17T07:43:25;12.90;99.90
62912;DHT22;49111;51.028;4.218;2022-09-17T07:45:52;12.80;99.90
62912;DHT22;49111;51.028;4.218;2022-09-17T07:48:19;12.80;99.90
62912;DHT22;49111;51.028;4.218;2022-09-17T07:50:45;12.80;99.90
62912;DHT22;49111;51.028;4.218;2022-09-17T07:53:11;12.80;99.90
62912;DHT22;49111;51.028;4.218;2022-09-17T07:55:37;12.80;99.90
62912;DHT22;49111;51.028;4.218;2022-09-17T07:58:03;12.80;99.90
62912;DHT22;49111;51.028;4.218;2022-09-17T08:00:29;12.90;99.90
62912;DHT22;49111;51.028;4.218;2022-09-17T08:02:55;12.80;99.90
62912;DHT22;49111;51.028;4.218;2022-09-17T08:05:22;12.80;99.90
62912;DHT22;49111;51.028;4.218;2022-09-17T08:07:50;12.80;99.90
62912;DHT22;49111;51.028;4.218;2022-09-17T08:10:16;12.80;99.90
62912;DHT22;49111;51.028;4.218;2022-09-17T08:12:49;12.90;99.90
62912;DHT22;49111;51.028;4.218;2022-09-17T08:15:16;13.00;99.90
62912;DHT22;49111;51.028;4.218;2022-09-17T08:17:45;13.00;99.90
62912;DHT22;49111;51.028;4.218;2022-09-17T08:20:12;13.10;99.90
62912;DHT22;49111;51.028;4.218;2022-09-17T08:22:38;13.20;99.90
62912;DHT22;49111;51.028;4.218;2022-09-17T08:25:05;13.20;99.90
62912;DHT22;49111;51.028;4.218;2022-09-17T08:27:31;13.20;99.90
62912;DHT22;49111;51.028;4.218;2022-09-17T08:29:57;13.10;99.90
62912;DHT22;49111;51.028;4.218;2022-09-17T08:32:23;13.10;99.90
62912;DHT22;49111;51.028;4.218;2022-09-17T08:34:49;13.10;99.90
62912;DHT22;49111;51.028;4.218;2022-09-17T08:37:15;13.10;99.90
62912;DHT22;49111;51.028;4.218;2022-09-17T08:39:41;13.00;99.90
62912;DHT22;49111;51.028;4.218;2022-09-17T08:42:53;13.10;99.90
62912;DHT22;49111;51.028;4.218;2022-09-17T08:44:55;13.20;99.90
62912;DHT22;49111;51.028;4.218;2022-09-17T08:47:29;13.30;99.90
62912;DHT22;49111;51.028;4.218;2022-09-17T08:49:58;13.40;99.90
62912;DHT22;49111;51.028;4.218;2022-09-17T09:04:01;13.60;99.90
62912;DHT22;49111;51.028;4.218;2022-09-17T09:06:36;13.60;99.90
62912;DHT22;49111;51.028;4.218;2022-09-17T09:09:13;13.60;99.90
62912;DHT22;49111;51.028;4.218;2022-09-17T09:11:41;13.60;99.90
62912;DHT22;49111;51.028;4.218;2022-09-17T09:14:26;13.60;99.90
62912;DHT22;49111;51.028;4.218;2022-09-17T09:16:54;13.70;99.90
62912;DHT22;49111;51.028;4.218;2022-09-17T09:19:26;13.70;99.90
62912;DHT22;49111;51.028;4.218;2022-09-17T09:24:39;13.50;99.90
62912;DHT22;49111;51.028;4.218;2022-09-17T09:27:22;13.30;99.90
62912;DHT22;49111;51.028;4.218;2022-09-17T09:35:35;13.00;99.90
62912;DHT22;49111;51.028;4.218;2022-09-17T09:38:14;13.00;99.90
62912;DHT22;49111;51.028;4.218;2022-09-17T09:43:47;13.30;99.90
62912;DHT22;49111;51.028;4.218;2022-09-17T09:51:54;13.60;99.90
62912;DHT22;49111;51.028;4.218;2022-09-17T09:57:10;13.70;99.90
62912;DHT22;49111;51.028;4.218;2022-09-17T09:59:37;13.70;99.90
62912;DHT22;49111;51.028;4.218;2022-09-17T10:02:03;13.60;99.90
62912;DHT22;49111;51.028;4.218;2022-09-17T10:04:29;13.50;99.90
62912;DHT22;49111;51.028;4.218;2022-09-17T10:07:05;13.50;99.90
62912;DHT22;49111;51.028;4.218;2022-09-17T10:09:33;13.50;99.90
62912;DHT22;49111;51.028;4.218;2022-09-17T10:14:29;13.20;99.90
62912;DHT22;49111;51.028;4.218;2022-09-17T10:22:37;13.20;99.90
62912;DHT22;49111;51.028;4.218;2022-09-17T10:25:11;13.30;99.90
62912;DHT22;49111;51.028;4.218;2022-09-17T10:27:44;13.40;99.90
62912;DHT22;49111;51.028;4.218;2022-09-17T10:32:35;13.70;99.90
62912;DHT22;49111;51.028;4.218;2022-09-17T10:35:04;13.70;99.90
62912;DHT22;49111;51.028;4.218;2022-09-17T10:37:47;13.70;99.90
62912;DHT22;49111;51.028;4.218;2022-09-17T10:42:46;13.70;99.90
62912;DHT22;49111;51.028;4.218;2022-09-17T10:45:29;13.70;99.90
62912;DHT22;49111;51.028;4.218;2022-09-17T10:47:56;13.70;99.90
62912;DHT22;49111;51.028;4.218;2022-09-17T10:50:31;13.70;99.90
62912;DHT22;49111;51.028;4.218;2022-09-17T10:53:15;13.70;99.90
62912;DHT22;49111;51.028;4.218;2022-09-17T11:01:13;13.40;99.90
62912;DHT22;49111;51.028;4.218;2022-09-17T11:09:28;13.10;99.90
62912;DHT22;49111;51.028;4.218;2022-09-17T11:20:04;13.30;99.90
62912;DHT22;49111;51.028;4.218;2022-09-17T11:28:34;13.70;99.90
62912;DHT22;49111;51.028;4.218;2022-09-17T11:36:18;13.80;99.90
62912;DHT22;49111;51.028;4.218;2022-09-17T11:38:47;14.00;99.90
62912;DHT22;49111;51.028;4.218;2022-09-17T11:46:24;14.20;99.90
62912;DHT22;49111;51.028;4.218;2022-09-17T11:49:01;14.10;99.90
62912;DHT22;49111;51.028;4.218;2022-09-17T11:51:40;14.30;99.90
62912;DHT22;49111;51.028;4.218;2022-09-17T11:57:30;14.50;99.90
62912;DHT22;49111;51.028;4.218;2022-09-17T12:00:23;14.70;99.90
62912;DHT22;49111;51.028;4.218;2022-09-17T12:05:54;14.80;99.90
62912;DHT22;49111;51.028;4.218;2022-09-17T12:08:38;14.90;99.90
62912;DHT22;49111;51.028;4.218;2022-09-17T12:11:32;14.90;99.90
62912;DHT22;49111;51.028;4.218;2022-09-17T12:14:25;14.80;99.90
62912;DHT22;49111;51.028;4.218;2022-09-17T12:16:57;15.20;99.90
62912;DHT22;49111;51.028;4.218;2022-09-17T12:19:36;15.60;99.90
62912;DHT22;49111;51.028;4.218;2022-09-17T12:22:12;15.70;99.90
62912;DHT22;49111;51.028;4.218;2022-09-17T12:24:41;15.60;99.90
62912;DHT22;49111;51.028;4.218;2022-09-17T12:33:00;14.40;99.90
62912;DHT22;49111;51.028;4.218;2022-09-17T12:41:48;13.80;99.90
62912;DHT22;49111;51.028;4.218;2022-09-17T12:53:00;13.70;99.90
62912;DHT22;49111;51.028;4.218;2022-09-17T13:00:39;14.10;99.90
62912;DHT22;49111;51.028;4.218;2022-09-17T13:04:03;14.20;99.90
62912;DHT22;49111;51.028;4.218;2022-09-17T13:09:22;14.10;99.90
62912;DHT22;49111;51.028;4.218;2022-09-17T13:17:18;14.00;99.90
62912;DHT22;49111;51.028;4.218;2022-09-17T13:22:44;14.60;99.90
62912;DHT22;49111;51.028;4.218;2022-09-17T13:25:13;14.70;99.90
62912;DHT22;49111;51.028;4.218;2022-09-17T13:27:40;14.80;99.90
62912;DHT22;49111;51.028;4.218;2022-09-17T13:30:10;14.80;99.90
62912;DHT22;49111;51.028;4.218;2022-09-17T13:37:33;15.10;99.90
62912;DHT22;49111;51.028;4.218;2022-09-17T13:40:00;15.40;99.90
62912;DHT22;49111;51.028;4.218;2022-09-17T13:42:29;15.50;99.90
62912;DHT22;49111;51.028;4.218;2022-09-17T13:45:13;15.60;99.90
62912;DHT22;49111;51.028;4.218;2022-09-17T13:47:54;15.70;99.90
62912;DHT22;49111;51.028;4.218;2022-09-17T13:50:30;15.90;99.90
62912;DHT22;49111;51.028;4.218;2022-09-17T13:53:20;16.10;99.90
62912;DHT22;49111;51.028;4.218;2022-09-17T13:55:58;16.20;99.90
62912;DHT22;49111;51.028;4.218;2022-09-17T13:58:29;16.40;99.90
62912;DHT22;49111;51.028;4.218;2022-09-17T14:19:21;13.80;99.90
62912;DHT22;49111;51.028;4.218;2022-09-17T14:24:39;13.40;99.90
62912;DHT22;49111;51.028;4.218;2022-09-17T14:27:34;13.30;99.90
62912;DHT22;49111;51.028;4.218;2022-09-17T14:30:16;13.30;99.90
62912;DHT22;49111;51.028;4.218;2022-09-17T14:35:45;13.80;99.90
62912;DHT22;49111;51.028;4.218;2022-09-17T14:38:41;13.80;99.90
62912;DHT22;49111;51.028;4.218;2022-09-17T14:48:44;14.00;99.90
62912;DHT22;49111;51.028;4.218;2022-09-17T14:53:44;13.90;99.90
62912;DHT22;49111;51.028;4.218;2022-09-17T14:56:18;13.90;99.90
62912;DHT22;49111;51.028;4.218;2022-09-17T14:58:51;13.90;99.90
62912;DHT22;49111;51.028;4.218;2022-09-17T15:01:25;13.90;99.90
62912;DHT22;49111;51.028;4.218;2022-09-17T15:06:43;14.10;99.90
62912;DHT22;49111;51.028;4.218;2022-09-17T15:09:24;14.20;99.90
62912;DHT22;49111;51.028;4.218;2022-09-17T15:11:54;14.30;99.90
62912;DHT22;49111;51.028;4.218;2022-09-17T15:14:32;14.40;99.90
62912;DHT22;49111;51.028;4.218;2022-09-17T15:17:00;14.40;99.90
62912;DHT22;49111;51.028;4.218;2022-09-17T15:19:33;14.40;99.90
62912;DHT22;49111;51.028;4.218;2022-09-17T15:22:21;14.40;99.90
62912;DHT22;49111;51.028;4.218;2022-09-17T15:24:50;14.30;99.90
62912;DHT22;49111;51.028;4.218;2022-09-17T15:27:26;14.40;99.90
62912;DHT22;49111;51.028;4.218;2022-09-17T15:30:01;14.50;99.90
62912;DHT22;49111;51.028;4.218;2022-09-17T15:32:27;14.50;99.90
62912;DHT22;49111;51.028;4.218;2022-09-17T15:37:52;14.50;99.90
62912;DHT22;49111;51.028;4.218;2022-09-17T15:40:31;14.60;99.90
62912;DHT22;49111;51.028;4.218;2022-09-17T15:45:45;14.70;99.90
62912;DHT22;49111;51.028;4.218;2022-09-17T15:50:51;14.70;99.90
62912;DHT22;49111;51.028;4.218;2022-09-17T15:53:23;14.60;99.90
62912;DHT22;49111;51.028;4.218;2022-09-17T15:58:29;14.80;99.90
62912;DHT22;49111;51.028;4.218;2022-09-17T16:08:52;14.70;99.90
62912;DHT22;49111;51.028;4.218;2022-09-17T16:11:21;14.60;99.90
62912;DHT22;49111;51.028;4.218;2022-09-17T16:13:47;14.70;99.90
62912;DHT22;49111;51.028;4.218;2022-09-17T16:16:19;14.70;99.90
62912;DHT22;49111;51.028;4.218;2022-09-17T16:18:45;14.50;99.90
62912;DHT22;49111;51.028;4.218;2022-09-17T16:21:12;14.40;99.90
62912;DHT22;49111;51.028;4.218;2022-09-17T16:23:38;14.30;99.90
62912;DHT22;49111;51.028;4.218;2022-09-17T16:26:04;14.20;99.90
62912;DHT22;49111;51.028;4.218;2022-09-17T16:28:31;14.10;99.90
62912;DHT22;49111;51.028;4.218;2022-09-17T16:30:57;14.00;99.90
62912;DHT22;49111;51.028;4.218;2022-09-17T16:33:23;14.20;99.90
62912;DHT22;49111;51.028;4.218;2022-09-17T16:35:56;14.20;99.90
62912;DHT22;49111;51.028;4.218;2022-09-17T16:38:22;14.30;99.90
62912;DHT22;49111;51.028;4.218;2022-09-17T16:40:47;14.20;99.90
62912;DHT22;49111;51.028;4.218;2022-09-17T16:43:13;14.30;99.90
62912;DHT22;49111;51.028;4.218;2022-09-17T16:45:39;14.40;99.90
62912;DHT22;49111;51.028;4.218;2022-09-17T16:48:05;14.30;99.90
62912;DHT22;49111;51.028;4.218;2022-09-17T16:50:32;14.30;99.90
62912;DHT22;49111;51.028;4.218;2022-09-17T16:52:58;14.30;99.90
62912;DHT22;49111;51.028;4.218;2022-09-17T16:55:24;14.30;99.90
62912;DHT22;49111;51.028;4.218;2022-09-17T16:57:50;14.20;99.90
62912;DHT22;49111;51.028;4.218;2022-09-17T17:00:18;14.10;99.90
62912;DHT22;49111;51.028;4.218;2022-09-17T17:02:54;14.00;99.90
62912;DHT22;49111;51.028;4.218;2022-09-17T17:05:22;13.80;99.90
62912;DHT22;49111;51.028;4.218;2022-09-17T17:07:48;13.90;99.90
62912;DHT22;49111;51.028;4.218;2022-09-17T17:10:14;13.80;99.90
62912;DHT22;49111;51.028;4.218;2022-09-17T17:12:40;13.70;99.90
62912;DHT22;49111;51.028;4.218;2022-09-17T17:15:07;13.80;99.90
62912;DHT22;49111;51.028;4.218;2022-09-17T17:17:34;13.90;99.90
62912;DHT22;49111;51.028;4.218;2022-09-17T17:20:01;13.90;99.90
62912;DHT22;49111;51.028;4.218;2022-09-17T17:22:31;13.80;99.90
62912;DHT22;49111;51.028;4.218;2022-09-17T17:24:57;13.90;99.90
62912;DHT22;49111;51.028;4.218;2022-09-17T17:27:22;13.90;99.90
62912;DHT22;49111;51.028;4.218;2022-09-17T17:29:48;13.90;99.90
62912;DHT22;49111;51.028;4.218;2022-09-17T17:32:14;13.80;99.90
62912;DHT22;49111;51.028;4.218;2022-09-17T17:34:40;13.80;99.90
62912;DHT22;49111;51.028;4.218;2022-09-17T17:37:05;13.80;99.90
62912;DHT22;49111;51.028;4.218;2022-09-17T17:39:31;13.70;99.90
62912;DHT22;49111;51.028;4.218;2022-09-17T17:41:57;13.70;99.90
62912;DHT22;49111;51.028;4.218;2022-09-17T17:44:23;13.60;99.90
62912;DHT22;49111;51.028;4.218;2022-09-17T17:46:49;13.60;99.90
62912;DHT22;49111;51.028;4.218;2022-09-17T17:49:15;13.70;99.90
62912;DHT22;49111;51.028;4.218;2022-09-17T17:51:40;13.70;99.90
62912;DHT22;49111;51.028;4.218;2022-09-17T17:54:06;13.60;99.90
62912;DHT22;49111;51.028;4.218;2022-09-17T17:56:32;13.60;99.90
62912;DHT22;49111;51.028;4.218;2022-09-17T17:58:58;13.60;99.90
62912;DHT22;49111;51.028;4.218;2022-09-17T18:01:27;13.60;99.90
62912;DHT22;49111;51.028;4.218;2022-09-17T18:03:58;13.50;99.90
62912;DHT22;49111;51.028;4.218;2022-09-17T18:06:25;13.50;99.90
62912;DHT22;49111;51.028;4.218;2022-09-17T18:08:52;13.60;99.90
62912;DHT22;49111;51.028;4.218;2022-09-17T18:11:18;13.50;99.90
62912;DHT22;49111;51.028;4.218;2022-09-17T18:13:45;13.50;99.90
62912;DHT22;49111;51.028;4.218;2022-09-17T18:16:12;13.50;99.90
62912;DHT22;49111;51.028;4.218;2022-09-17T18:18:40;13.50;99.90
62912;DHT22;49111;51.028;4.218;2022-09-17T18:21:08;13.50;99.90
62912;DHT22;49111;51.028;4.218;2022-09-17T18:23:37;13.60;99.90
62912;DHT22;49111;51.028;4.218;2022-09-17T18:26:04;13.60;99.90
62912;DHT22;49111;51.028;4.218;2022-09-17T18:28:32;13.50;99.90
62912;DHT22;49111;51.028;4.218;2022-09-17T18:31:22;13.50;99.90
62912;DHT22;49111;51.028;4.218;2022-09-17T18:33:53;13.40;99.90
62912;DHT22;49111;51.028;4.218;2022-09-17T18:36:19;13.30;99.90
62912;DHT22;49111;51.028;4.218;2022-09-17T18:38:45;13.30;99.90
62912;DHT22;49111;51.028;4.218;2022-09-17T18:41:12;13.30;99.90
62912;DHT22;49111;51.028;4.218;2022-09-17T18:43:38;13.40;99.90
62912;DHT22;49111;51.028;4.218;2022-09-17T18:46:04;13.50;99.90
62912;DHT22;49111;51.028;4.218;2022-09-17T18:48:30;13.50;99.90
62912;DHT22;49111;51.028;4.218;2022-09-17T18:51:05;13.40;99.90
62912;DHT22;49111;51.028;4.218;2022-09-17T18:53:34;13.40;99.90
62912;DHT22;49111;51.028;4.218;2022-09-17T18:56:09;13.40;99.90
62912;DHT22;49111;51.028;4.218;2022-09-17T18:58:35;13.50;99.90
62912;DHT22;49111;51.028;4.218;2022-09-17T19:01:04;13.50;99.90
62912;DHT22;49111;51.028;4.218;2022-09-17T19:03:31;13.50;99.90
62912;DHT22;49111;51.028;4.218;2022-09-17T19:05:58;13.50;99.90
62912;DHT22;49111;51.028;4.218;2022-09-17T19:08:25;13.60;99.90
62912;DHT22;49111;51.028;4.218;2022-09-17T19:10:51;13.70;99.90
62912;DHT22;49111;51.028;4.218;2022-09-17T19:13:17;13.70;99.90
62912;DHT22;49111;51.028;4.218;2022-09-17T19:15:44;13.70;99.90
62912;DHT22;49111;51.028;4.218;2022-09-17T19:18:12;13.80;99.90
62912;DHT22;49111;51.028;4.218;2022-09-17T19:20:38;13.90;99.90
62912;DHT22;49111;51.028;4.218;2022-09-17T19:23:05;13.90;99.90
62912;DHT22;49111;51.028;4.218;2022-09-17T19:25:33;14.00;99.90
62912;DHT22;49111;51.028;4.218;2022-09-17T19:27:59;14.00;99.90
62912;DHT22;49111;51.028;4.218;2022-09-17T19:30:25;14.00;99.90
62912;DHT22;49111;51.028;4.218;2022-09-17T19:32:51;13.90;99.90